createdAt,value
2019-01-21T00:00:33.286Z,36.28
2019-01-21T00:03:03.071Z,37.40
2019-01-21T00:05:56.534Z,38.53
2019-01-21T00:08:26.609Z,41.63
2019-01-21T00:10:57.422Z,42.65
2019-01-21T00:13:27.488Z,40.38
2019-01-21T00:16:00.814Z,36.93
2019-01-21T00:18:32.636Z,38.85
2019-01-21T00:21:02.369Z,37.93
2019-01-21T00:23:32.018Z,40.45
2019-01-21T00:26:03.171Z,46.65
2019-01-21T00:28:33.853Z,44.50
2019-01-21T00:31:05.493Z,37.88
2019-01-21T00:33:47.286Z,40.88
2019-01-21T00:36:21.954Z,37.58
2019-01-21T00:38:58.900Z,40.78
2019-01-21T00:41:32.018Z,37.83
2019-01-21T00:44:02.938Z,34.70
2019-01-21T00:46:35.216Z,32.83
2019-01-21T00:49:06.976Z,31.05
2019-01-21T00:51:37.162Z,31.85
2019-01-21T00:54:07.692Z,44.55
2019-01-21T00:56:37.636Z,39.38
2019-01-21T00:59:22.469Z,42.83
2019-01-21T01:01:56.592Z,43.60
2019-01-21T01:04:35.180Z,42.03
2019-01-21T01:07:06.782Z,39.42
2019-01-21T01:09:37.656Z,47.23
2019-01-21T01:12:09.967Z,43.45
2019-01-21T01:14:44.491Z,40.75
2019-01-21T01:17:18.044Z,49.03
2019-01-21T01:19:52.760Z,39.38
2019-01-21T01:22:30.434Z,43.65
2019-01-21T01:25:04.256Z,45.80
2019-01-21T01:27:37.076Z,44.48
2019-01-21T01:30:12.635Z,38.50
2019-01-21T01:32:49.584Z,45.43
2019-01-21T01:35:29.186Z,44.05
2019-01-21T01:46:28.077Z,45.83
2019-01-21T01:48:57.370Z,40.58
2019-01-21T01:51:26.292Z,41.63
2019-01-21T01:53:55.476Z,40.15
2019-01-21T01:56:27.433Z,47.45
2019-01-21T01:58:56.392Z,40.35
2019-01-21T02:01:25.704Z,42.25
2019-01-21T02:03:54.684Z,44.20
2019-01-21T02:06:33.751Z,45.20
2019-01-21T02:09:12.510Z,43.25
2019-01-21T02:11:42.578Z,39.78
2019-01-21T02:14:12.817Z,49.40
2019-01-21T02:16:41.739Z,42.93
2019-01-21T02:19:12.629Z,42.83
2019-01-21T02:21:42.267Z,41.60
2019-01-21T02:24:13.853Z,47.53
2019-01-21T02:26:54.711Z,40.25
2019-01-21T02:29:42.105Z,45.48
2019-01-21T02:32:23.851Z,41.25
2019-01-21T02:35:23.357Z,47.67
2019-01-21T02:38:15.636Z,40.50
2019-01-21T02:40:58.520Z,43.00
2019-01-21T02:44:16.195Z,38.53
2019-01-21T02:47:37.343Z,42.35
2019-01-21T02:50:29.813Z,43.92
2019-01-21T02:53:35.915Z,46.90
2019-01-21T02:56:41.917Z,44.58
2019-01-21T02:59:28.104Z,41.30
2019-01-21T03:02:45.773Z,37.83
2019-01-21T03:05:43.382Z,38.10
2019-01-21T03:08:41.699Z,47.98
2019-01-21T03:11:54.835Z,46.37
2019-01-21T03:14:47.255Z,37.80
2019-01-21T03:17:37.702Z,38.50
2019-01-21T03:20:44.892Z,43.92
2019-01-21T03:23:51.819Z,39.60
2019-01-21T03:27:00.956Z,43.70
2019-01-21T03:30:08.013Z,43.00
2019-01-21T03:32:49.169Z,36.38
2019-01-21T03:35:59.622Z,41.92
2019-01-21T04:13:17.152Z,39.65
2019-01-21T04:16:18.793Z,51.08
2019-01-21T04:19:02.056Z,43.28
2019-01-21T04:21:48.515Z,37.98
2019-01-21T04:25:04.146Z,42.25
2019-01-21T04:28:06.236Z,42.58
2019-01-21T04:58:54.131Z,38.78
2019-01-21T05:01:50.256Z,40.25
2019-01-21T05:04:33.084Z,43.35
2019-01-21T05:07:41.092Z,40.30
2019-01-21T05:10:34.504Z,44.88
2019-01-21T05:14:02.400Z,44.25
2019-01-21T05:16:55.432Z,40.80
2019-01-21T05:20:09.397Z,44.42
2019-01-21T05:23:31.706Z,37.88
2019-01-21T05:26:26.153Z,35.98
2019-01-21T05:29:22.075Z,39.92
2019-01-21T05:32:21.956Z,39.00
2019-01-21T05:35:14.043Z,42.05
2019-01-21T05:38:07.625Z,47.38
2019-01-21T05:41:23.683Z,41.10
2019-01-21T05:44:27.618Z,48.17
2019-01-21T05:47:11.167Z,42.85
2019-01-21T05:50:35.460Z,45.70
2019-01-21T05:53:50.127Z,47.98
2019-01-21T06:00:33.464Z,42.23
2019-01-21T06:03:46.482Z,49.88
2019-01-21T06:06:51.596Z,41.92
2019-01-21T06:09:52.949Z,42.70
2019-01-21T06:12:57.433Z,48.92
2019-01-21T06:16:03.966Z,44.73
2019-01-21T07:01:58.553Z,59.30
2019-01-21T07:05:06.939Z,47.08
2019-01-21T07:08:21.429Z,50.17
2019-01-21T07:11:27.529Z,47.65
2019-01-21T07:14:39.729Z,49.00
2019-01-21T07:17:36.499Z,52.90
2019-01-21T07:20:33.403Z,45.65
2019-01-21T07:24:04.775Z,42.27
2019-01-21T07:27:09.675Z,44.05
2019-01-21T07:30:28.891Z,51.70
2019-01-21T07:33:38.668Z,39.40
2019-01-21T07:36:43.253Z,44.05
2019-01-21T07:51:06.515Z,45.83
2019-01-21T08:01:52.549Z,45.70
2019-01-21T08:05:14.997Z,40.73
2019-01-21T08:07:51.964Z,53.38
2019-01-21T08:11:20.158Z,53.50
2019-01-21T08:18:10.280Z,52.88
2019-01-21T08:21:15.920Z,49.80
2019-01-21T08:24:38.937Z,51.28
2019-01-21T08:28:14.796Z,47.40
2019-01-21T08:31:12.989Z,47.98
2019-01-21T08:34:21.733Z,45.92
2019-01-21T08:37:40.561Z,48.98
2019-01-21T08:40:37.587Z,50.38
2019-01-21T08:43:58.593Z,51.28
2019-01-21T08:50:51.353Z,57.40
2019-01-21T08:54:24.201Z,50.63
2019-01-21T08:57:21.502Z,55.85
2019-01-21T09:00:14.709Z,46.25
2019-01-21T09:03:09.572Z,57.90
2019-01-21T09:06:13.929Z,51.77
2019-01-21T09:09:28.874Z,47.62
2019-01-21T09:12:31.395Z,48.40
2019-01-21T09:15:29.707Z,50.78
2019-01-21T09:18:40.430Z,55.23
2019-01-21T09:21:35.337Z,45.15
2019-01-21T09:25:00.497Z,45.75
2019-01-21T09:28:07.165Z,50.15
2019-01-21T09:31:24.828Z,52.25
2019-01-21T09:34:41.800Z,47.62
2019-01-21T09:37:45.228Z,47.65
2019-01-21T09:40:41.962Z,60.23
2019-01-21T09:43:39.988Z,52.65
2019-01-21T09:46:48.521Z,54.33
2019-01-21T09:49:16.009Z,52.15
2019-01-21T09:52:15.136Z,58.75
2019-01-21T09:54:44.068Z,47.67
2019-01-21T09:57:26.264Z,50.08
2019-01-21T10:00:01.509Z,52.98
2019-01-21T10:02:47.270Z,50.85
2019-01-21T10:05:28.089Z,54.77
2019-01-21T10:12:13.970Z,55.95
2019-01-21T10:15:35.228Z,54.63
2019-01-21T10:19:00.212Z,54.42
2019-01-21T10:22:26.851Z,59.10
2019-01-21T10:28:54.647Z,47.53
2019-01-21T10:32:03.232Z,49.15
2019-01-21T10:38:54.424Z,51.65
2019-01-21T10:41:38.088Z,51.02
2019-01-21T10:45:05.593Z,59.60
2019-01-21T10:48:25.745Z,53.45
2019-01-21T10:51:18.718Z,53.10
2019-01-21T10:54:13.807Z,57.65
2019-01-21T10:57:31.512Z,52.88
2019-01-21T11:01:02.420Z,50.15
2019-01-21T11:04:34.289Z,52.33
2019-01-21T11:07:44.447Z,52.25
2019-01-21T11:10:43.029Z,48.58
2019-01-21T11:14:06.761Z,52.27
2019-01-21T11:17:02.964Z,52.88
2019-01-21T11:20:28.425Z,55.55
2019-01-21T11:23:26.939Z,62.30
2019-01-21T11:26:54.137Z,55.73
2019-01-21T11:29:44.903Z,54.10
2019-01-21T11:32:57.477Z,51.90
2019-01-21T11:36:10.448Z,58.23
2019-01-21T11:39:24.288Z,55.17
2019-01-21T11:42:30.855Z,51.90
2019-01-21T11:45:41.027Z,51.05
2019-01-21T11:48:43.123Z,48.50
2019-01-21T11:51:46.087Z,44.88
2019-01-21T11:55:23.667Z,41.65
2019-01-21T11:58:40.366Z,44.67
2019-01-21T12:10:02.194Z,43.87
2019-01-21T12:12:49.933Z,50.98
2019-01-21T12:15:41.666Z,45.23
2019-01-21T12:18:40.414Z,42.13
2019-01-21T12:21:58.848Z,46.80
2019-01-21T12:24:45.667Z,44.75
2019-01-21T12:28:06.519Z,46.00
2019-01-21T12:30:55.597Z,42.35
2019-01-21T12:34:04.456Z,44.13
2019-01-21T12:37:22.991Z,42.73
2019-01-21T12:40:23.538Z,47.83
2019-01-21T12:43:25.688Z,46.42
2019-01-21T12:46:39.488Z,43.33
2019-01-21T12:49:46.053Z,46.83
2019-01-21T12:52:24.054Z,44.63
2019-01-21T12:55:00.692Z,45.63
2019-01-21T12:58:31.537Z,40.58
2019-01-21T13:02:01.847Z,44.88
2019-01-21T13:08:35.918Z,42.30
2019-01-21T13:12:03.457Z,44.75
2019-01-21T13:15:30.864Z,47.17
2019-01-21T13:18:48.996Z,46.53
2019-01-21T13:21:57.379Z,52.15
2019-01-21T13:25:30.020Z,55.33
2019-01-21T13:29:18.723Z,46.83
2019-01-21T13:32:12.612Z,50.43
2019-01-21T13:35:14.273Z,46.40
2019-01-21T13:38:11.596Z,46.25
2019-01-21T13:41:42.581Z,46.08
2019-01-21T13:48:38.538Z,46.53
2019-01-21T13:51:49.323Z,47.43
2019-01-21T13:55:12.452Z,45.98
2019-01-21T13:58:27.678Z,46.63
2019-01-21T14:01:09.986Z,47.90
2019-01-21T14:04:34.954Z,43.92
2019-01-21T14:07:48.086Z,43.68
2019-01-21T14:11:15.855Z,42.20
2019-01-21T14:14:01.302Z,42.73
2019-01-21T14:17:11.622Z,42.95
2019-01-21T14:20:53.956Z,38.35
2019-01-21T14:24:17.881Z,41.02
2019-01-21T14:27:21.807Z,40.63
2019-01-21T14:30:00.466Z,40.52
2019-01-21T14:33:13.323Z,46.70
2019-01-21T14:36:09.075Z,47.90
2019-01-21T14:39:15.269Z,42.43
2019-01-21T14:42:44.713Z,44.55
2019-01-21T14:45:56.583Z,47.27
2019-01-21T14:51:41.474Z,41.10
2019-01-21T14:54:33.802Z,41.45
2019-01-21T14:57:52.802Z,39.92
2019-01-21T15:01:10.252Z,45.48
2019-01-21T15:03:54.338Z,39.05
2019-01-21T15:07:07.500Z,41.25
2019-01-21T15:15:35.622Z,44.27
2019-01-21T15:18:22.240Z,41.83
2019-01-21T15:21:49.828Z,43.00
2019-01-21T15:25:00.843Z,45.00
2019-01-21T15:27:49.053Z,47.27
2019-01-21T15:31:05.096Z,51.83
2019-01-21T15:37:48.244Z,45.50
2019-01-21T15:40:41.443Z,43.80
2019-01-21T15:43:29.340Z,51.30
2019-01-21T15:46:22.540Z,51.35
2019-01-21T15:49:28.110Z,52.43
2019-01-21T15:52:32.935Z,52.43
2019-01-21T15:59:27.615Z,54.70
2019-01-21T16:02:04.693Z,51.50
2019-01-21T16:04:58.472Z,48.40
2019-01-21T16:07:43.175Z,51.20
2019-01-21T16:10:34.749Z,52.90
2019-01-21T16:13:38.711Z,59.80
2019-01-21T16:16:34.989Z,52.33
2019-01-21T16:19:15.998Z,53.87
2019-01-21T16:22:03.834Z,55.05
2019-01-21T16:24:56.523Z,59.40
2019-01-21T16:28:06.768Z,60.03
2019-01-21T16:31:02.210Z,58.87
2019-01-21T16:33:49.206Z,59.05
2019-01-21T16:36:36.920Z,60.40
2019-01-21T16:39:37.076Z,61.23
2019-01-21T16:42:14.978Z,57.75
2019-01-21T16:44:45.805Z,60.45
2019-01-21T16:47:15.789Z,62.67
2019-01-21T16:50:10.515Z,57.38
2019-01-21T16:53:21.232Z,54.70
2019-01-21T16:56:06.377Z,65.28
2019-01-21T16:58:41.496Z,63.02
2019-01-21T17:01:22.477Z,61.18
2019-01-21T17:03:56.869Z,57.23
2019-01-21T17:07:13.584Z,63.28
2019-01-21T17:09:43.141Z,60.10
2019-01-21T17:12:12.511Z,64.75
2019-01-21T17:14:41.941Z,60.85
2019-01-21T17:19:40.282Z,63.40
2019-01-21T17:22:09.573Z,64.90
2019-01-21T17:24:38.899Z,62.67
2019-01-21T17:27:08.882Z,67.05
2019-01-21T17:34:54.962Z,65.70
2019-01-21T17:37:28.219Z,70.83
2019-01-21T17:39:57.198Z,64.65
2019-01-21T17:42:26.082Z,64.27
2019-01-21T17:44:55.004Z,69.15
2019-01-21T17:47:24.130Z,66.97
2019-01-21T17:49:53.148Z,73.83
2019-01-21T17:52:22.231Z,75.15
2019-01-21T17:54:51.200Z,74.90
2019-01-21T17:57:20.168Z,77.15
2019-01-21T17:59:49.163Z,76.80
2019-01-21T18:02:18.128Z,81.22
2019-01-21T18:04:47.068Z,75.57
2019-01-21T18:07:15.943Z,82.62
2019-01-21T18:09:45.031Z,82.92
2019-01-21T18:12:13.933Z,76.87
2019-01-21T18:14:42.811Z,87.15
2019-01-21T18:17:11.679Z,77.17
2019-01-21T18:19:40.769Z,72.58
2019-01-21T18:22:09.931Z,80.83
2019-01-21T18:24:38.919Z,83.07
2019-01-21T18:27:07.775Z,73.78
2019-01-21T18:29:36.667Z,93.75
2019-01-21T18:32:05.681Z,92.90
2019-01-21T18:34:34.551Z,82.97
2019-01-21T18:37:03.771Z,85.87
2019-01-21T18:39:32.745Z,76.57
2019-01-21T18:42:02.738Z,73.20
2019-01-21T18:44:33.737Z,83.40
2019-01-21T18:47:07.585Z,80.53
2019-01-21T18:52:43.397Z,81.65
2019-01-21T18:55:17.341Z,86.17
2019-01-21T18:58:18.001Z,78.97
2019-01-21T19:00:47.061Z,82.80
2019-01-21T19:03:24.332Z,73.33
2019-01-21T19:05:55.102Z,76.25
2019-01-21T19:11:09.469Z,87.80
2019-01-21T19:13:38.455Z,77.87
2019-01-21T19:16:07.391Z,77.90
2019-01-21T19:19:23.636Z,83.45
2019-01-21T19:22:25.389Z,77.70
2019-01-21T19:28:41.204Z,77.05
2019-01-21T19:31:12.773Z,88.22
2019-01-21T19:33:42.725Z,82.42
2019-01-21T19:36:11.939Z,82.57
2019-01-21T19:38:41.840Z,75.37
2019-01-21T19:41:12.002Z,81.10
2019-01-21T19:43:44.153Z,80.53
2019-01-21T19:46:14.428Z,85.60
2019-01-21T19:48:46.873Z,93.00
2019-01-21T20:02:44.895Z,81.35
2019-01-21T20:37:46.942Z,78.40
2019-01-21T20:43:13.012Z,86.05
2019-01-21T20:58:48.341Z,87.22
2019-01-21T21:05:47.946Z,87.08
2019-01-21T22:02:32.176Z,88.22
2019-01-21T23:09:19.084Z,95.75
2019-01-21T23:11:48.235Z,90.03
2019-01-21T23:14:17.219Z,92.27
2019-01-21T23:16:46.175Z,91.72
2019-01-21T23:19:15.187Z,91.67
2019-01-21T23:21:44.267Z,102.32
2019-01-21T23:24:16.726Z,92.22
2019-01-21T23:26:45.787Z,93.03
2019-01-21T23:29:14.760Z,92.20
2019-01-21T23:31:43.725Z,97.10
2019-01-21T23:34:12.663Z,100.12
2019-01-21T23:36:41.732Z,96.17
2019-01-21T23:39:10.701Z,104.87
